Airfield :
LOGIN :

Register | Disclaimer

   EN    FR    IT 

 










Legend :    VFR   Marginal VFR   IFR   Intensive IFR   Very Intensive IFR
Visi :
Ceiling :
>= 8 km
>= 3000ft
5 to 8 km
1000 to 3000 ft
1500m to 5 km
500 to 1000 ft
800 to 1500m
200 to 500 ft
< 800m
< 200 ft
Symbols :   Thunderstorms  Fog  Heavy snow  Heavy precipitations  Wind > 20 kt
SIGMETs :     Misc.  Thunderstorms  Icing  Turbulence  Mountain Waves  Volcanic Ashes






- Airport Elevation : 464 ft
- IATA code : EVX


LFOE - Evreux

CURRENT METAR :
  • 200930Z AUTO 04010KT 0750 0700 R22/0900U FG VV/// 02/02 Q1047 BECMG 7000 NSW BKN008

EXPIRED METARs :
  • 200900Z AUTO 04010KT 0500 0450 R22/0650N FG VV/// 02/02 Q1047 BECMG 7000 NSW BKN008
  • 200830Z AUTO 04010KT 1100 1000 R22/1400D BR VV/// 02/01 Q1047 BECMG 8000 NSW BKN009
  • 200800Z AUTO 05009KT 2800 BR OVC003 01/01 Q1047 BECMG 8000 NSW BKN009
  • 200730Z AUTO 03007KT 5000 BR BKN003 BKN025 00/00 Q1047 BECMG BKN009
  • 200700Z AUTO 01009KT 6000 NSC 01/01 Q1046 BECMG BKN004

TAF TAF LFOE
Valid from the 20 at 09:00 until the 21 at 09:00 UTC


200800Z 2009/2109 05010KT 0800 FG VV///
BECMG 2010/2012 7000 NSW BKN008
BECMG 2012/2014 SCT010
BECMG 2017/2019 OVC003
BECMG 2103/2104 2000 BR
TEMPO 2104/2108 0600 FZFG VV///



MET'MAP, your aeronautical weather chart ! - Copyright ORBIFLY December 2007 - Disclaimer

ORBIFLY MET'MAP TEAM :

Programming & Development : Alexandra Zaïnal
Concept & original design : Baudouin d'Aumeries
Assistance for programming : Marc-Olivier Méhu
Technical & hardware support : Manuel Goepfert

Contact : metmap@orbifly.com




SOURCES & CREDITS :

   NOAA